sensor_id;sensor_type;location;lat;lon;timestamp;P1;durP1;ratioP1;P2;durP2;ratioP2
50355;SDS011;36264;51.296;-0.602;2023-07-22T00:01:08;4.45;;;2.25;;
50355;SDS011;36264;51.296;-0.602;2023-07-22T00:03:34;9.02;;;3.33;;
50355;SDS011;36264;51.296;-0.602;2023-07-22T00:06:03;6.22;;;2.95;;
50355;SDS011;36264;51.296;-0.602;2023-07-22T00:08:33;7.72;;;3.28;;
50355;SDS011;36264;51.296;-0.602;2023-07-22T00:10:59;12.73;;;4.75;;
50355;SDS011;36264;51.296;-0.602;2023-07-22T00:13:24;17.20;;;6.18;;
50355;SDS011;36264;51.296;-0.602;2023-07-22T00:15:54;14.82;;;6.43;;
50355;SDS011;36264;51.296;-0.602;2023-07-22T00:18:20;12.43;;;6.03;;
50355;SDS011;36264;51.296;-0.602;2023-07-22T00:20:45;13.52;;;6.20;;
50355;SDS011;36264;51.296;-0.602;2023-07-22T00:23:11;11.93;;;5.55;;
50355;SDS011;36264;51.296;-0.602;2023-07-22T00:25:36;14.13;;;5.88;;
50355;SDS011;36264;51.296;-0.602;2023-07-22T00:28:02;11.55;;;5.25;;
50355;SDS011;36264;51.296;-0.602;2023-07-22T00:30:29;14.77;;;5.68;;
50355;SDS011;36264;51.296;-0.602;2023-07-22T00:32:54;13.20;;;5.32;;
50355;SDS011;36264;51.296;-0.602;2023-07-22T00:35:20;11.18;;;5.03;;
50355;SDS011;36264;51.296;-0.602;2023-07-22T00:37:46;9.02;;;4.20;;
50355;SDS011;36264;51.296;-0.602;2023-07-22T00:40:11;9.65;;;4.35;;
50355;SDS011;36264;51.296;-0.602;2023-07-22T00:42:40;7.13;;;4.00;;
50355;SDS011;36264;51.296;-0.602;2023-07-22T00:45:05;6.78;;;3.83;;
50355;SDS011;36264;51.296;-0.602;2023-07-22T00:47:35;5.53;;;3.08;;
50355;SDS011;36264;51.296;-0.602;2023-07-22T00:50:02;5.47;;;3.03;;
50355;SDS011;36264;51.296;-0.602;2023-07-22T00:52:28;6.38;;;3.10;;
50355;SDS011;36264;51.296;-0.602;2023-07-22T00:54:54;4.88;;;2.50;;
50355;SDS011;36264;51.296;-0.602;2023-07-22T00:57:20;5.43;;;2.70;;
50355;SDS011;36264;51.296;-0.602;2023-07-22T00:59:46;5.35;;;2.47;;
50355;SDS011;36264;51.296;-0.602;2023-07-22T01:02:11;6.47;;;2.50;;
50355;SDS011;36264;51.296;-0.602;2023-07-22T01:04:37;5.53;;;2.35;;
50355;SDS011;36264;51.296;-0.602;2023-07-22T01:07:04;5.43;;;2.60;;
50355;SDS011;36264;51.296;-0.602;2023-07-22T01:09:36;6.22;;;2.80;;
50355;SDS011;36264;51.296;-0.602;2023-07-22T01:12:03;4.25;;;2.10;;
50355;SDS011;36264;51.296;-0.602;2023-07-22T01:14:31;3.28;;;1.88;;
50355;SDS011;36264;51.296;-0.602;2023-07-22T01:17:04;3.97;;;2.00;;
50355;SDS011;36264;51.296;-0.602;2023-07-22T01:19:30;3.50;;;1.80;;
50355;SDS011;36264;51.296;-0.602;2023-07-22T01:22:01;3.08;;;1.92;;
50355;SDS011;36264;51.296;-0.602;2023-07-22T01:24:28;3.65;;;1.70;;
50355;SDS011;36264;51.296;-0.602;2023-07-22T01:26:54;2.95;;;1.52;;
50355;SDS011;36264;51.296;-0.602;2023-07-22T01:29:21;2.55;;;1.60;;
50355;SDS011;36264;51.296;-0.602;2023-07-22T01:31:53;2.80;;;1.60;;
50355;SDS011;36264;51.296;-0.602;2023-07-22T01:34:19;1.95;;;1.30;;
50355;SDS011;36264;51.296;-0.602;2023-07-22T01:36:46;5.03;;;2.20;;
50355;SDS011;36264;51.296;-0.602;2023-07-22T01:39:13;3.22;;;1.85;;
50355;SDS011;36264;51.296;-0.602;2023-07-22T01:41:39;2.58;;;1.45;;
50355;SDS011;36264;51.296;-0.602;2023-07-22T01:44:05;2.67;;;1.48;;
50355;SDS011;36264;51.296;-0.602;2023-07-22T01:46:30;4.35;;;1.95;;
50355;SDS011;36264;51.296;-0.602;2023-07-22T01:48:56;1.90;;;1.40;;
50355;SDS011;36264;51.296;-0.602;2023-07-22T01:51:21;2.53;;;1.60;;
50355;SDS011;36264;51.296;-0.602;2023-07-22T01:53:46;2.95;;;1.60;;
50355;SDS011;36264;51.296;-0.602;2023-07-22T01:56:12;2.42;;;1.48;;
50355;SDS011;36264;51.296;-0.602;2023-07-22T01:58:38;2.08;;;1.50;;
50355;SDS011;36264;51.296;-0.602;2023-07-22T02:01:03;2.70;;;1.70;;
50355;SDS011;36264;51.296;-0.602;2023-07-22T02:03:29;2.42;;;1.73;;
50355;SDS011;36264;51.296;-0.602;2023-07-22T02:06:00;3.63;;;1.75;;
50355;SDS011;36264;51.296;-0.602;2023-07-22T02:08:27;2.83;;;1.42;;
50355;SDS011;36264;51.296;-0.602;2023-07-22T02:10:52;3.03;;;1.60;;
50355;SDS011;36264;51.296;-0.602;2023-07-22T02:13:18;2.33;;;1.40;;
50355;SDS011;36264;51.296;-0.602;2023-07-22T02:15:43;3.00;;;1.48;;
50355;SDS011;36264;51.296;-0.602;2023-07-22T02:18:08;2.75;;;1.50;;
50355;SDS011;36264;51.296;-0.602;2023-07-22T02:20:34;2.55;;;1.60;;
50355;SDS011;36264;51.296;-0.602;2023-07-22T02:22:59;3.10;;;1.70;;
50355;SDS011;36264;51.296;-0.602;2023-07-22T02:25:24;3.40;;;1.83;;
50355;SDS011;36264;51.296;-0.602;2023-07-22T02:27:50;2.70;;;1.40;;
50355;SDS011;36264;51.296;-0.602;2023-07-22T02:30:15;2.78;;;1.73;;
50355;SDS011;36264;51.296;-0.602;2023-07-22T02:32:42;3.33;;;1.50;;
50355;SDS011;36264;51.296;-0.602;2023-07-22T02:35:08;2.70;;;1.55;;
50355;SDS011;36264;51.296;-0.602;2023-07-22T02:37:36;2.03;;;1.40;;
50355;SDS011;36264;51.296;-0.602;2023-07-22T02:40:02;2.50;;;1.58;;
50355;SDS011;36264;51.296;-0.602;2023-07-22T02:42:33;4.30;;;1.92;;
50355;SDS011;36264;51.296;-0.602;2023-07-22T02:44:59;4.22;;;2.17;;
50355;SDS011;36264;51.296;-0.602;2023-07-22T02:47:25;5.05;;;2.03;;
50355;SDS011;36264;51.296;-0.602;2023-07-22T02:49:50;4.72;;;2.28;;
50355;SDS011;36264;51.296;-0.602;2023-07-22T02:52:15;6.50;;;2.83;;
50355;SDS011;36264;51.296;-0.602;2023-07-22T02:54:41;6.50;;;2.70;;
50355;SDS011;36264;51.296;-0.602;2023-07-22T02:57:06;7.20;;;2.78;;
50355;SDS011;36264;51.296;-0.602;2023-07-22T02:59:32;6.43;;;3.40;;
50355;SDS011;36264;51.296;-0.602;2023-07-22T03:01:58;6.97;;;2.80;;
50355;SDS011;36264;51.296;-0.602;2023-07-22T03:04:23;5.75;;;2.95;;
50355;SDS011;36264;51.296;-0.602;2023-07-22T03:06:49;6.85;;;3.22;;
50355;SDS011;36264;51.296;-0.602;2023-07-22T03:09:14;5.97;;;2.88;;
50355;SDS011;36264;51.296;-0.602;2023-07-22T03:11:39;7.47;;;2.80;;
50355;SDS011;36264;51.296;-0.602;2023-07-22T03:14:05;8.60;;;3.53;;
50355;SDS011;36264;51.296;-0.602;2023-07-22T03:16:30;6.43;;;2.80;;
50355;SDS011;36264;51.296;-0.602;2023-07-22T03:18:56;7.55;;;3.47;;
50355;SDS011;36264;51.296;-0.602;2023-07-22T03:21:22;6.45;;;3.00;;
50355;SDS011;36264;51.296;-0.602;2023-07-22T03:23:48;9.65;;;3.55;;
50355;SDS011;36264;51.296;-0.602;2023-07-22T03:26:14;6.90;;;2.75;;
50355;SDS011;36264;51.296;-0.602;2023-07-22T03:28:39;6.13;;;2.60;;
50355;SDS011;36264;51.296;-0.602;2023-07-22T03:31:06;6.28;;;2.70;;
50355;SDS011;36264;51.296;-0.602;2023-07-22T03:33:33;7.53;;;3.10;;
50355;SDS011;36264;51.296;-0.602;2023-07-22T03:35:59;5.35;;;2.60;;
50355;SDS011;36264;51.296;-0.602;2023-07-22T03:38:25;5.00;;;2.50;;
50355;SDS011;36264;51.296;-0.602;2023-07-22T03:40:50;5.03;;;2.10;;
50355;SDS011;36264;51.296;-0.602;2023-07-22T03:43:18;5.45;;;2.70;;
50355;SDS011;36264;51.296;-0.602;2023-07-22T03:45:43;5.05;;;2.70;;
50355;SDS011;36264;51.296;-0.602;2023-07-22T03:48:09;5.82;;;2.88;;
50355;SDS011;36264;51.296;-0.602;2023-07-22T03:50:34;6.18;;;2.65;;
50355;SDS011;36264;51.296;-0.602;2023-07-22T03:53:00;6.22;;;2.97;;
50355;SDS011;36264;51.296;-0.602;2023-07-22T03:55:25;5.68;;;2.92;;
50355;SDS011;36264;51.296;-0.602;2023-07-22T03:57:51;5.38;;;2.97;;
50355;SDS011;36264;51.296;-0.602;2023-07-22T04:00:16;6.82;;;3.25;;
50355;SDS011;36264;51.296;-0.602;2023-07-22T04:02:42;6.45;;;3.08;;
50355;SDS011;36264;51.296;-0.602;2023-07-22T04:05:07;5.70;;;2.72;;
50355;SDS011;36264;51.296;-0.602;2023-07-22T04:07:33;5.45;;;2.65;;
50355;SDS011;36264;51.296;-0.602;2023-07-22T04:09:59;6.20;;;2.88;;
50355;SDS011;36264;51.296;-0.602;2023-07-22T04:12:24;7.30;;;3.00;;
50355;SDS011;36264;51.296;-0.602;2023-07-22T04:14:50;8.43;;;2.90;;
50355;SDS011;36264;51.296;-0.602;2023-07-22T04:17:15;6.80;;;3.10;;
50355;SDS011;36264;51.296;-0.602;2023-07-22T04:19:41;6.63;;;3.00;;
50355;SDS011;36264;51.296;-0.602;2023-07-22T04:22:08;6.18;;;2.80;;
50355;SDS011;36264;51.296;-0.602;2023-07-22T04:24:33;6.95;;;3.30;;
50355;SDS011;36264;51.296;-0.602;2023-07-22T04:27:00;6.10;;;3.05;;
50355;SDS011;36264;51.296;-0.602;2023-07-22T04:29:26;5.38;;;2.75;;
50355;SDS011;36264;51.296;-0.602;2023-07-22T04:31:51;6.15;;;2.85;;
50355;SDS011;36264;51.296;-0.602;2023-07-22T04:34:16;5.28;;;2.67;;
50355;SDS011;36264;51.296;-0.602;2023-07-22T04:36:42;5.47;;;2.50;;
50355;SDS011;36264;51.296;-0.602;2023-07-22T04:39:08;5.70;;;2.30;;
50355;SDS011;36264;51.296;-0.602;2023-07-22T04:41:34;5.85;;;2.45;;
50355;SDS011;36264;51.296;-0.602;2023-07-22T04:43:59;6.03;;;2.55;;
50355;SDS011;36264;51.296;-0.602;2023-07-22T04:46:25;5.35;;;2.50;;
50355;SDS011;36264;51.296;-0.602;2023-07-22T04:48:53;5.30;;;2.33;;
50355;SDS011;36264;51.296;-0.602;2023-07-22T04:51:19;4.60;;;2.20;;
50355;SDS011;36264;51.296;-0.602;2023-07-22T04:53:44;5.30;;;2.45;;
50355;SDS011;36264;51.296;-0.602;2023-07-22T04:56:09;4.32;;;1.98;;
50355;SDS011;36264;51.296;-0.602;2023-07-22T04:58:35;6.35;;;2.53;;
50355;SDS011;36264;51.296;-0.602;2023-07-22T05:01:00;4.13;;;2.20;;
50355;SDS011;36264;51.296;-0.602;2023-07-22T05:03:25;5.18;;;2.40;;
50355;SDS011;36264;51.296;-0.602;2023-07-22T05:05:51;4.07;;;2.42;;
50355;SDS011;36264;51.296;-0.602;2023-07-22T05:08:17;6.53;;;2.58;;
50355;SDS011;36264;51.296;-0.602;2023-07-22T05:10:42;6.45;;;2.95;;
50355;SDS011;36264;51.296;-0.602;2023-07-22T05:13:08;5.13;;;2.72;;
50355;SDS011;36264;51.296;-0.602;2023-07-22T05:15:33;6.22;;;2.45;;
50355;SDS011;36264;51.296;-0.602;2023-07-22T05:17:58;4.55;;;2.20;;
50355;SDS011;36264;51.296;-0.602;2023-07-22T05:20:24;4.40;;;2.10;;
50355;SDS011;36264;51.296;-0.602;2023-07-22T05:22:49;3.40;;;2.03;;
50355;SDS011;36264;51.296;-0.602;2023-07-22T05:25:14;3.25;;;1.92;;
50355;SDS011;36264;51.296;-0.602;2023-07-22T05:27:40;5.15;;;2.33;;
50355;SDS011;36264;51.296;-0.602;2023-07-22T05:30:06;4.97;;;2.20;;
50355;SDS011;36264;51.296;-0.602;2023-07-22T05:32:31;3.30;;;1.65;;
50355;SDS011;36264;51.296;-0.602;2023-07-22T05:34:57;3.75;;;1.88;;
50355;SDS011;36264;51.296;-0.602;2023-07-22T05:37:25;3.53;;;1.77;;
50355;SDS011;36264;51.296;-0.602;2023-07-22T05:39:51;2.75;;;1.52;;
50355;SDS011;36264;51.296;-0.602;2023-07-22T05:42:17;5.20;;;2.10;;
50355;SDS011;36264;51.296;-0.602;2023-07-22T05:44:42;2.80;;;1.75;;
50355;SDS011;36264;51.296;-0.602;2023-07-22T05:47:08;3.15;;;1.60;;
50355;SDS011;36264;51.296;-0.602;2023-07-22T05:49:34;3.35;;;1.92;;
50355;SDS011;36264;51.296;-0.602;2023-07-22T05:51:59;3.58;;;1.70;;
50355;SDS011;36264;51.296;-0.602;2023-07-22T05:54:24;4.10;;;1.98;;
50355;SDS011;36264;51.296;-0.602;2023-07-22T05:56:50;4.25;;;1.90;;
50355;SDS011;36264;51.296;-0.602;2023-07-22T05:59:15;4.70;;;2.15;;
50355;SDS011;36264;51.296;-0.602;2023-07-22T06:01:40;5.38;;;2.28;;
50355;SDS011;36264;51.296;-0.602;2023-07-22T06:04:06;4.32;;;1.90;;
50355;SDS011;36264;51.296;-0.602;2023-07-22T06:06:31;3.53;;;1.77;;
50355;SDS011;36264;51.296;-0.602;2023-07-22T06:08:57;4.30;;;2.38;;
50355;SDS011;36264;51.296;-0.602;2023-07-22T06:11:22;3.88;;;2.00;;
50355;SDS011;36264;51.296;-0.602;2023-07-22T06:13:48;3.78;;;1.90;;
50355;SDS011;36264;51.296;-0.602;2023-07-22T06:16:13;5.25;;;2.00;;
50355;SDS011;36264;51.296;-0.602;2023-07-22T06:18:39;4.75;;;2.00;;
50355;SDS011;36264;51.296;-0.602;2023-07-22T06:21:04;4.18;;;1.83;;
50355;SDS011;36264;51.296;-0.602;2023-07-22T06:23:30;4.20;;;2.00;;
50355;SDS011;36264;51.296;-0.602;2023-07-22T06:25:55;4.88;;;2.03;;
50355;SDS011;36264;51.296;-0.602;2023-07-22T06:28:21;3.38;;;1.92;;
50355;SDS011;36264;51.296;-0.602;2023-07-22T06:30:46;4.88;;;2.08;;
50355;SDS011;36264;51.296;-0.602;2023-07-22T06:33:12;3.65;;;1.98;;
50355;SDS011;36264;51.296;-0.602;2023-07-22T06:35:37;6.13;;;2.35;;
50355;SDS011;36264;51.296;-0.602;2023-07-22T06:38:02;3.92;;;1.83;;
50355;SDS011;36264;51.296;-0.602;2023-07-22T06:40:28;4.25;;;1.83;;
50355;SDS011;36264;51.296;-0.602;2023-07-22T06:42:53;4.97;;;2.15;;
50355;SDS011;36264;51.296;-0.602;2023-07-22T06:45:19;4.07;;;1.90;;
50355;SDS011;36264;51.296;-0.602;2023-07-22T06:47:44;5.35;;;2.17;;
50355;SDS011;36264;51.296;-0.602;2023-07-22T06:50:10;2.92;;;1.80;;
50355;SDS011;36264;51.296;-0.602;2023-07-22T06:52:35;2.85;;;1.50;;
50355;SDS011;36264;51.296;-0.602;2023-07-22T06:55:01;3.33;;;1.85;;
50355;SDS011;36264;51.296;-0.602;2023-07-22T06:57:26;3.28;;;1.80;;
50355;SDS011;36264;51.296;-0.602;2023-07-22T06:59:54;4.03;;;2.00;;
50355;SDS011;36264;51.296;-0.602;2023-07-22T07:02:20;3.20;;;1.98;;
50355;SDS011;36264;51.296;-0.602;2023-07-22T07:04:46;4.20;;;2.17;;
50355;SDS011;36264;51.296;-0.602;2023-07-22T07:07:14;3.42;;;1.80;;
50355;SDS011;36264;51.296;-0.602;2023-07-22T07:09:40;5.18;;;2.00;;
50355;SDS011;36264;51.296;-0.602;2023-07-22T07:12:06;5.05;;;2.03;;
50355;SDS011;36264;51.296;-0.602;2023-07-22T07:14:35;3.72;;;1.85;;
50355;SDS011;36264;51.296;-0.602;2023-07-22T07:17:01;2.85;;;1.67;;
50355;SDS011;36264;51.296;-0.602;2023-07-22T07:19:27;4.10;;;2.10;;
50355;SDS011;36264;51.296;-0.602;2023-07-22T07:21:53;3.35;;;1.75;;
50355;SDS011;36264;51.296;-0.602;2023-07-22T07:24:18;4.40;;;1.88;;
50355;SDS011;36264;51.296;-0.602;2023-07-22T07:26:44;3.50;;;2.00;;
50355;SDS011;36264;51.296;-0.602;2023-07-22T07:29:10;3.58;;;2.10;;
50355;SDS011;36264;51.296;-0.602;2023-07-22T07:31:36;3.22;;;1.90;;
50355;SDS011;36264;51.296;-0.602;2023-07-22T07:34:02;5.47;;;2.20;;
50355;SDS011;36264;51.296;-0.602;2023-07-22T07:36:27;4.47;;;2.10;;
50355;SDS011;36264;51.296;-0.602;2023-07-22T07:38:53;7.63;;;2.45;;
50355;SDS011;36264;51.296;-0.602;2023-07-22T07:41:18;5.10;;;2.30;;
50355;SDS011;36264;51.296;-0.602;2023-07-22T07:43:43;4.47;;;2.10;;
50355;SDS011;36264;51.296;-0.602;2023-07-22T07:46:13;3.85;;;2.25;;
50355;SDS011;36264;51.296;-0.602;2023-07-22T07:48:42;3.22;;;1.95;;
50355;SDS011;36264;51.296;-0.602;2023-07-22T07:51:12;3.38;;;1.85;;
50355;SDS011;36264;51.296;-0.602;2023-07-22T07:53:42;4.15;;;1.88;;
50355;SDS011;36264;51.296;-0.602;2023-07-22T07:56:14;4.60;;;2.13;;
50355;SDS011;36264;51.296;-0.602;2023-07-22T07:58:41;3.33;;;2.08;;
50355;SDS011;36264;51.296;-0.602;2023-07-22T08:01:07;2.90;;;1.90;;
50355;SDS011;36264;51.296;-0.602;2023-07-22T08:03:33;4.15;;;2.10;;
50355;SDS011;36264;51.296;-0.602;2023-07-22T08:06:00;3.65;;;2.20;;
50355;SDS011;36264;51.296;-0.602;2023-07-22T08:08:26;5.35;;;2.55;;
50355;SDS011;36264;51.296;-0.602;2023-07-22T08:10:58;4.35;;;2.30;;
50355;SDS011;36264;51.296;-0.602;2023-07-22T08:13:31;3.47;;;2.00;;
50355;SDS011;36264;51.296;-0.602;2023-07-22T08:15:58;2.72;;;1.85;;
50355;SDS011;36264;51.296;-0.602;2023-07-22T08:18:24;5.28;;;2.28;;
50355;SDS011;36264;51.296;-0.602;2023-07-22T08:20:51;4.63;;;2.08;;
50355;SDS011;36264;51.296;-0.602;2023-07-22T08:23:17;3.72;;;2.00;;
50355;SDS011;36264;51.296;-0.602;2023-07-22T08:25:43;3.90;;;2.38;;
50355;SDS011;36264;51.296;-0.602;2023-07-22T08:28:08;3.95;;;2.03;;
50355;SDS011;36264;51.296;-0.602;2023-07-22T08:30:34;4.05;;;2.20;;
50355;SDS011;36264;51.296;-0.602;2023-07-22T08:33:00;4.88;;;2.38;;
50355;SDS011;36264;51.296;-0.602;2023-07-22T08:35:25;3.83;;;2.30;;
50355;SDS011;36264;51.296;-0.602;2023-07-22T08:37:51;10.55;;;2.63;;
50355;SDS011;36264;51.296;-0.602;2023-07-22T08:40:17;6.63;;;2.50;;
50355;SDS011;36264;51.296;-0.602;2023-07-22T08:42:43;4.57;;;2.60;;
50355;SDS011;36264;51.296;-0.602;2023-07-22T08:45:11;5.20;;;2.85;;
50355;SDS011;36264;51.296;-0.602;2023-07-22T08:47:38;4.80;;;2.50;;
50355;SDS011;36264;51.296;-0.602;2023-07-22T08:50:14;5.03;;;3.08;;
50355;SDS011;36264;51.296;-0.602;2023-07-22T08:52:42;5.05;;;2.60;;
50355;SDS011;36264;51.296;-0.602;2023-07-22T08:55:09;4.35;;;2.40;;
50355;SDS011;36264;51.296;-0.602;2023-07-22T08:57:35;5.93;;;2.47;;
50355;SDS011;36264;51.296;-0.602;2023-07-22T09:00:03;4.43;;;2.60;;
50355;SDS011;36264;51.296;-0.602;2023-07-22T09:02:31;5.43;;;2.67;;
50355;SDS011;36264;51.296;-0.602;2023-07-22T09:04:58;8.77;;;3.00;;
50355;SDS011;36264;51.296;-0.602;2023-07-22T09:07:24;6.13;;;3.10;;
50355;SDS011;36264;51.296;-0.602;2023-07-22T09:09:50;7.38;;;4.15;;
50355;SDS011;36264;51.296;-0.602;2023-07-22T09:12:17;5.82;;;3.55;;
50355;SDS011;36264;51.296;-0.602;2023-07-22T09:14:42;4.90;;;3.10;;
50355;SDS011;36264;51.296;-0.602;2023-07-22T09:17:09;6.03;;;2.97;;
50355;SDS011;36264;51.296;-0.602;2023-07-22T09:19:35;5.15;;;2.67;;
50355;SDS011;36264;51.296;-0.602;2023-07-22T09:22:00;4.20;;;2.72;;
50355;SDS011;36264;51.296;-0.602;2023-07-22T09:24:26;6.28;;;3.33;;
50355;SDS011;36264;51.296;-0.602;2023-07-22T09:26:53;7.15;;;3.33;;
50355;SDS011;36264;51.296;-0.602;2023-07-22T09:29:32;5.53;;;2.60;;
50355;SDS011;36264;51.296;-0.602;2023-07-22T09:32:07;4.70;;;2.75;;
50355;SDS011;36264;51.296;-0.602;2023-07-22T09:34:32;4.93;;;2.63;;
50355;SDS011;36264;51.296;-0.602;2023-07-22T09:36:58;4.43;;;2.55;;
50355;SDS011;36264;51.296;-0.602;2023-07-22T09:39:29;6.13;;;2.70;;
50355;SDS011;36264;51.296;-0.602;2023-07-22T09:41:54;5.25;;;2.67;;
50355;SDS011;36264;51.296;-0.602;2023-07-22T09:44:20;4.75;;;2.60;;
50355;SDS011;36264;51.296;-0.602;2023-07-22T09:46:47;4.60;;;2.70;;
50355;SDS011;36264;51.296;-0.602;2023-07-22T09:49:13;5.20;;;2.95;;
50355;SDS011;36264;51.296;-0.602;2023-07-22T09:51:41;4.93;;;2.95;;
50355;SDS011;36264;51.296;-0.602;2023-07-22T09:54:06;4.75;;;2.25;;
50355;SDS011;36264;51.296;-0.602;2023-07-22T09:56:33;4.68;;;2.60;;
50355;SDS011;36264;51.296;-0.602;2023-07-22T09:59:08;3.72;;;2.28;;
50355;SDS011;36264;51.296;-0.602;2023-07-22T10:01:37;3.95;;;2.47;;
50355;SDS011;36264;51.296;-0.602;2023-07-22T10:04:03;6.43;;;2.88;;
50355;SDS011;36264;51.296;-0.602;2023-07-22T10:06:30;5.20;;;2.40;;
50355;SDS011;36264;51.296;-0.602;2023-07-22T10:08:57;5.65;;;2.42;;
50355;SDS011;36264;51.296;-0.602;2023-07-22T10:11:28;5.18;;;2.40;;
50355;SDS011;36264;51.296;-0.602;2023-07-22T10:13:55;5.45;;;2.28;;
50355;SDS011;36264;51.296;-0.602;2023-07-22T10:16:20;5.35;;;2.20;;
50355;SDS011;36264;51.296;-0.602;2023-07-22T10:18:47;5.25;;;2.67;;
50355;SDS011;36264;51.296;-0.602;2023-07-22T10:21:13;4.25;;;2.35;;
50355;SDS011;36264;51.296;-0.602;2023-07-22T10:23:39;3.70;;;2.20;;
50355;SDS011;36264;51.296;-0.602;2023-07-22T10:26:05;4.55;;;2.40;;
50355;SDS011;36264;51.296;-0.602;2023-07-22T10:28:31;5.50;;;2.47;;
50355;SDS011;36264;51.296;-0.602;2023-07-22T10:30:57;5.30;;;2.58;;
50355;SDS011;36264;51.296;-0.602;2023-07-22T10:33:24;5.25;;;2.45;;
50355;SDS011;36264;51.296;-0.602;2023-07-22T10:38:30;5.73;;;2.30;;
50355;SDS011;36264;51.296;-0.602;2023-07-22T10:40:57;4.72;;;2.40;;
50355;SDS011;36264;51.296;-0.602;2023-07-22T10:43:32;3.90;;;2.40;;
50355;SDS011;36264;51.296;-0.602;2023-07-22T10:46:04;3.95;;;2.20;;
50355;SDS011;36264;51.296;-0.602;2023-07-22T10:48:36;4.35;;;2.45;;
50355;SDS011;36264;51.296;-0.602;2023-07-22T10:51:06;5.88;;;2.30;;
50355;SDS011;36264;51.296;-0.602;2023-07-22T10:53:48;4.53;;;2.22;;
50355;SDS011;36264;51.296;-0.602;2023-07-22T10:56:16;7.30;;;2.83;;
50355;SDS011;36264;51.296;-0.602;2023-07-22T11:06:57;5.05;;;2.80;;
50355;SDS011;36264;51.296;-0.602;2023-07-22T11:11:56;4.97;;;2.72;;
50355;SDS011;36264;51.296;-0.602;2023-07-22T11:14:23;5.78;;;2.92;;
50355;SDS011;36264;51.296;-0.602;2023-07-22T11:16:50;5.53;;;2.97;;
50355;SDS011;36264;51.296;-0.602;2023-07-22T11:19:17;4.75;;;2.70;;
50355;SDS011;36264;51.296;-0.602;2023-07-22T11:21:45;4.88;;;2.75;;
50355;SDS011;36264;51.296;-0.602;2023-07-22T11:24:11;6.80;;;3.10;;
50355;SDS011;36264;51.296;-0.602;2023-07-22T11:26:37;4.93;;;3.38;;
50355;SDS011;36264;51.296;-0.602;2023-07-22T11:29:04;7.47;;;3.30;;
50355;SDS011;36264;51.296;-0.602;2023-07-22T11:31:32;6.40;;;3.63;;
50355;SDS011;36264;51.296;-0.602;2023-07-22T11:33:58;6.30;;;3.58;;
50355;SDS011;36264;51.296;-0.602;2023-07-22T11:36:24;5.70;;;3.50;;
50355;SDS011;36264;51.296;-0.602;2023-07-22T11:38:52;6.93;;;3.50;;
50355;SDS011;36264;51.296;-0.602;2023-07-22T11:41:19;7.30;;;3.50;;
50355;SDS011;36264;51.296;-0.602;2023-07-22T11:43:46;7.85;;;3.95;;
50355;SDS011;36264;51.296;-0.602;2023-07-22T11:46:12;5.68;;;3.53;;
50355;SDS011;36264;51.296;-0.602;2023-07-22T11:48:37;4.93;;;3.15;;
50355;SDS011;36264;51.296;-0.602;2023-07-22T11:51:02;4.75;;;3.13;;
50355;SDS011;36264;51.296;-0.602;2023-07-22T11:53:28;5.95;;;3.30;;
50355;SDS011;36264;51.296;-0.602;2023-07-22T11:55:54;6.20;;;3.53;;
50355;SDS011;36264;51.296;-0.602;2023-07-22T11:58:24;5.53;;;3.30;;
50355;SDS011;36264;51.296;-0.602;2023-07-22T12:01:10;7.30;;;4.28;;
50355;SDS011;36264;51.296;-0.602;2023-07-22T12:03:36;6.07;;;3.13;;
50355;SDS011;36264;51.296;-0.602;2023-07-22T12:06:05;5.63;;;3.50;;
50355;SDS011;36264;51.296;-0.602;2023-07-22T12:08:32;8.00;;;3.78;;
50355;SDS011;36264;51.296;-0.602;2023-07-22T12:10:58;6.85;;;3.83;;
50355;SDS011;36264;51.296;-0.602;2023-07-22T12:13:24;8.25;;;3.70;;
50355;SDS011;36264;51.296;-0.602;2023-07-22T12:16:02;5.68;;;3.47;;
50355;SDS011;36264;51.296;-0.602;2023-07-22T12:18:45;5.32;;;3.35;;
50355;SDS011;36264;51.296;-0.602;2023-07-22T12:21:11;8.00;;;3.92;;
50355;SDS011;36264;51.296;-0.602;2023-07-22T12:23:37;6.30;;;3.47;;
50355;SDS011;36264;51.296;-0.602;2023-07-22T12:26:03;7.38;;;4.22;;
50355;SDS011;36264;51.296;-0.602;2023-07-22T12:28:29;7.13;;;3.53;;
50355;SDS011;36264;51.296;-0.602;2023-07-22T12:30:54;7.55;;;3.70;;
50355;SDS011;36264;51.296;-0.602;2023-07-22T12:33:22;9.00;;;4.80;;
50355;SDS011;36264;51.296;-0.602;2023-07-22T12:35:49;8.60;;;4.50;;
50355;SDS011;36264;51.296;-0.602;2023-07-22T12:38:14;9.77;;;4.57;;
50355;SDS011;36264;51.296;-0.602;2023-07-22T12:40:40;8.25;;;4.65;;
50355;SDS011;36264;51.296;-0.602;2023-07-22T12:43:05;8.32;;;4.95;;
50355;SDS011;36264;51.296;-0.602;2023-07-22T12:45:30;8.20;;;4.80;;
50355;SDS011;36264;51.296;-0.602;2023-07-22T12:47:56;7.38;;;4.40;;
50355;SDS011;36264;51.296;-0.602;2023-07-22T12:50:21;7.15;;;4.05;;
50355;SDS011;36264;51.296;-0.602;2023-07-22T12:52:47;7.60;;;4.80;;
50355;SDS011;36264;51.296;-0.602;2023-07-22T12:55:12;6.60;;;4.35;;
50355;SDS011;36264;51.296;-0.602;2023-07-22T12:57:38;6.68;;;4.35;;
50355;SDS011;36264;51.296;-0.602;2023-07-22T13:00:03;6.43;;;4.20;;
50355;SDS011;36264;51.296;-0.602;2023-07-22T13:02:34;7.40;;;4.20;;
50355;SDS011;36264;51.296;-0.602;2023-07-22T13:04:59;6.93;;;4.10;;
50355;SDS011;36264;51.296;-0.602;2023-07-22T13:07:25;8.40;;;4.80;;
50355;SDS011;36264;51.296;-0.602;2023-07-22T13:09:50;6.10;;;4.18;;
50355;SDS011;36264;51.296;-0.602;2023-07-22T13:12:18;6.15;;;4.30;;
50355;SDS011;36264;51.296;-0.602;2023-07-22T13:14:44;6.45;;;4.30;;
50355;SDS011;36264;51.296;-0.602;2023-07-22T13:17:10;8.30;;;4.90;;
50355;SDS011;36264;51.296;-0.602;2023-07-22T13:19:36;8.40;;;4.72;;
50355;SDS011;36264;51.296;-0.602;2023-07-22T13:22:01;5.45;;;3.92;;
50355;SDS011;36264;51.296;-0.602;2023-07-22T13:24:26;7.10;;;4.20;;
50355;SDS011;36264;51.296;-0.602;2023-07-22T13:26:52;7.32;;;4.22;;
50355;SDS011;36264;51.296;-0.602;2023-07-22T13:29:17;6.78;;;4.20;;
50355;SDS011;36264;51.296;-0.602;2023-07-22T13:31:42;6.93;;;4.15;;
50355;SDS011;36264;51.296;-0.602;2023-07-22T13:34:08;6.47;;;4.07;;
50355;SDS011;36264;51.296;-0.602;2023-07-22T13:36:33;6.40;;;3.85;;
50355;SDS011;36264;51.296;-0.602;2023-07-22T13:38:58;6.28;;;4.32;;
50355;SDS011;36264;51.296;-0.602;2023-07-22T13:41:24;7.82;;;4.43;;
50355;SDS011;36264;51.296;-0.602;2023-07-22T13:43:49;7.13;;;4.70;;
50355;SDS011;36264;51.296;-0.602;2023-07-22T13:46:14;7.53;;;4.88;;
50355;SDS011;36264;51.296;-0.602;2023-07-22T13:48:40;6.90;;;4.45;;
50355;SDS011;36264;51.296;-0.602;2023-07-22T13:51:05;8.25;;;4.32;;
50355;SDS011;36264;51.296;-0.602;2023-07-22T13:53:30;8.48;;;4.75;;
50355;SDS011;36264;51.296;-0.602;2023-07-22T13:55:56;8.38;;;4.95;;
50355;SDS011;36264;51.296;-0.602;2023-07-22T13:58:21;7.97;;;5.72;;
50355;SDS011;36264;51.296;-0.602;2023-07-22T14:00:46;9.75;;;5.15;;
50355;SDS011;36264;51.296;-0.602;2023-07-22T14:03:13;10.23;;;5.63;;
50355;SDS011;36264;51.296;-0.602;2023-07-22T14:05:39;8.18;;;5.20;;
50355;SDS011;36264;51.296;-0.602;2023-07-22T14:08:04;8.40;;;5.30;;
50355;SDS011;36264;51.296;-0.602;2023-07-22T14:10:30;11.25;;;5.82;;
50355;SDS011;36264;51.296;-0.602;2023-07-22T14:12:55;8.70;;;5.43;;
50355;SDS011;36264;51.296;-0.602;2023-07-22T14:15:20;7.07;;;4.60;;
50355;SDS011;36264;51.296;-0.602;2023-07-22T14:17:46;9.70;;;5.15;;
50355;SDS011;36264;51.296;-0.602;2023-07-22T14:20:11;7.47;;;4.70;;
50355;SDS011;36264;51.296;-0.602;2023-07-22T14:22:37;8.63;;;4.97;;
50355;SDS011;36264;51.296;-0.602;2023-07-22T14:25:03;8.60;;;5.72;;
50355;SDS011;36264;51.296;-0.602;2023-07-22T14:27:28;9.15;;;5.80;;
50355;SDS011;36264;51.296;-0.602;2023-07-22T14:29:54;10.15;;;5.63;;
50355;SDS011;36264;51.296;-0.602;2023-07-22T14:32:19;7.72;;;5.18;;
50355;SDS011;36264;51.296;-0.602;2023-07-22T14:34:44;8.43;;;5.15;;
50355;SDS011;36264;51.296;-0.602;2023-07-22T14:37:10;7.63;;;5.22;;
50355;SDS011;36264;51.296;-0.602;2023-07-22T14:39:35;10.32;;;6.10;;
50355;SDS011;36264;51.296;-0.602;2023-07-22T14:42:00;7.68;;;5.10;;